Time;durP1;ratioP1;P1;durP2;ratioP2;P2;SDS_P1;SDS_P2;PMS_P1;PMS_P2;Temp;Humidity;BMP_temperature;BMP_pressure;BME280_temperature;BME280_humidity;BME280_pressure;Samples;Min_cycle;Max_cycle;Signal;HPM_P1;HPM_P2
2023/05/04 00:00:57;;;;;;;6.88;4.25;;;;;10.90;99050.00;;;;5050663;28;20041;-64
2023/05/04 00:03:23;;;;;;;6.63;4.70;;;;;10.90;99049.00;;;;5052084;28;20506;-64
2023/05/04 00:05:50;;;;;;;8.82;5.05;;;;;10.90;99049.00;;;;5050362;28;20052;-64
2023/05/04 00:08:16;;;;;;;6.53;4.75;;;;;10.90;99036.00;;;;5050216;28;20049;-64
2023/05/04 00:10:43;;;;;;;7.93;4.90;;;;;10.90;99043.00;;;;5051392;28;20045;-64
2023/05/04 00:13:09;;;;;;;5.15;4.60;;;;;10.80;99036.00;;;;5051181;28;20091;-64
2023/05/04 00:15:36;;;;;;;6.63;4.65;;;;;10.80;99035.00;;;;5052630;28;20045;-63
2023/05/04 00:18:03;;;;;;;8.50;5.00;;;;;10.80;99028.00;;;;5055215;28;20455;-64
2023/05/04 00:20:30;;;;;;;8.63;4.57;;;;;10.70;99033.00;;;;5054707;28;20045;-64
2023/05/04 00:22:56;;;;;;;6.75;4.95;;;;;10.70;99030.00;;;;5054935;28;20048;-64
2023/05/04 00:25:23;;;;;;;5.22;4.72;;;;;10.70;99035.00;;;;5054171;28;20048;-64
2023/05/04 00:27:49;;;;;;;5.60;4.43;;;;;10.60;99034.00;;;;5054997;28;20049;-64
2023/05/04 00:30:16;;;;;;;6.05;5.22;;;;;10.50;99026.00;;;;5054840;28;20107;-64
2023/05/04 00:32:43;;;;;;;5.75;4.60;;;;;10.50;99022.00;;;;5053658;28;20094;-64
2023/05/04 00:35:09;;;;;;;7.20;4.82;;;;;10.40;99020.00;;;;5055010;28;20045;-63
2023/05/04 00:37:36;;;;;;;8.45;4.90;;;;;10.30;99015.00;;;;5037147;28;20103;-64
2023/05/04 00:40:03;;;;;;;9.77;4.95;;;;;10.20;99014.00;;;;5054682;28;20052;-64
2023/05/04 00:42:29;;;;;;;6.82;5.40;;;;;10.10;99006.00;;;;5054230;28;20072;-65
2023/05/04 00:44:56;;;;;;;7.60;5.30;;;;;10.10;99004.00;;;;5056772;28;20052;-65
2023/05/04 00:47:23;;;;;;;7.75;5.43;;;;;10.00;99016.00;;;;5055301;28;20049;-65
2023/05/04 00:49:50;;;;;;;8.63;5.38;;;;;10.00;99018.00;;;;5056960;28;20044;-65
2023/05/04 00:52:19;;;;;;;8.48;5.10;;;;;10.00;99013.00;;;;5056130;28;20041;-66
2023/05/04 00:54:46;;;;;;;9.40;5.18;;;;;10.00;99013.00;;;;5040194;28;20053;-65
2023/05/04 00:57:15;;;;;;;8.68;5.03;;;;;10.00;99012.00;;;;5058574;28;20052;-65
2023/05/04 00:59:42;;;;;;;8.40;5.57;;;;;9.90;99015.00;;;;5058846;28;20041;-65
2023/05/04 01:02:08;;;;;;;8.25;4.80;;;;;9.90;99005.00;;;;5056389;28;20063;-64
2023/05/04 01:04:35;;;;;;;7.72;4.80;;;;;10.00;99008.00;;;;5056333;28;20054;-65
2023/05/04 01:07:15;;;;;;;5.97;4.82;;;;;9.90;99009.00;;;;5058479;28;20047;-66
2023/05/04 01:09:48;;;;;;;10.05;5.18;;;;;9.90;98999.00;;;;5058291;28;20049;-65
2023/05/04 01:12:28;;;;;;;8.40;5.53;;;;;9.90;98987.00;;;;5057028;28;20041;-65
2023/05/04 01:14:57;;;;;;;11.75;5.22;;;;;9.90;98994.00;;;;5055800;28;20072;-65
2023/05/04 01:17:24;;;;;;;8.35;5.32;;;;;9.90;98992.00;;;;5055820;28;20052;-65
2023/05/04 01:19:52;;;;;;;7.18;4.85;;;;;9.80;99001.00;;;;5055610;28;20037;-65
2023/05/04 01:22:22;;;;;;;8.07;5.13;;;;;9.90;98995.00;;;;5055419;28;20044;-65
2023/05/04 01:24:49;;;;;;;8.93;4.93;;;;;9.90;98995.00;;;;5055305;28;20052;-65
2023/05/04 01:27:25;;;;;;;8.45;4.93;;;;;9.90;98987.00;;;;5058549;28;20045;-65
2023/05/04 01:30:04;;;;;;;9.05;4.90;;;;;9.90;98993.00;;;;5057910;28;20124;-65
2023/05/04 01:32:31;;;;;;;6.68;4.68;;;;;9.90;98993.00;;;;5056332;28;20040;-66
2023/05/04 01:34:58;;;;;;;8.48;4.65;;;;;9.90;98995.00;;;;5039950;28;20114;-66
2023/05/04 01:37:25;;;;;;;8.50;4.78;;;;;10.00;98991.00;;;;5056271;28;20052;-66
2023/05/04 01:39:51;;;;;;;6.22;4.55;;;;;10.00;98983.00;;;;5054617;28;20049;-66
2023/05/04 01:42:18;;;;;;;5.00;4.50;;;;;9.90;98993.00;;;;5055201;28;20045;-64
2023/05/04 01:44:44;;;;;;;6.75;4.13;;;;;9.90;98988.00;;;;5055105;28;20473;-65
2023/05/04 01:47:11;;;;;;;6.03;4.35;;;;;9.80;98992.00;;;;5055607;28;20044;-64
2023/05/04 01:49:37;;;;;;;8.57;4.68;;;;;9.80;98986.00;;;;5053188;28;20052;-64
2023/05/04 01:52:04;;;;;;;5.47;4.15;;;;;9.80;98980.00;;;;5052149;28;20045;-63
2023/05/04 01:54:30;;;;;;;7.55;4.70;;;;;9.70;98976.00;;;;5053293;28;20044;-63
2023/05/04 01:56:57;;;;;;;10.45;4.72;;;;;9.60;98975.00;;;;5053340;28;20099;-63
2023/05/04 01:59:24;;;;;;;7.70;4.28;;;;;9.60;98975.00;;;;5052148;28;20132;-64
2023/05/04 02:01:50;;;;;;;7.05;4.43;;;;;9.60;98982.00;;;;5051816;28;20091;-64
2023/05/04 02:04:17;;;;;;;9.75;4.28;;;;;9.60;98977.00;;;;5035099;28;20055;-64
2023/05/04 02:06:43;;;;;;;5.45;4.53;;;;;9.50;98977.00;;;;5053208;28;20509;-64
2023/05/04 02:09:10;;;;;;;5.72;4.53;;;;;9.50;98972.00;;;;5051575;28;20041;-63
2023/05/04 02:11:37;;;;;;;6.50;4.63;;;;;9.40;98983.00;;;;5051789;28;20037;-63
2023/05/04 02:14:04;;;;;;;7.10;4.47;;;;;9.30;98969.00;;;;5052919;28;20041;-62
2023/05/04 02:16:30;;;;;;;6.25;4.20;;;;;9.20;98965.00;;;;5053006;28;20045;-63
2023/05/04 02:18:57;;;;;;;6.30;4.35;;;;;9.20;98964.00;;;;5052683;28;20037;-64
2023/05/04 02:21:24;;;;;;;4.13;3.72;;;;;9.20;98961.00;;;;5035047;28;20049;-64
2023/05/04 02:23:50;;;;;;;7.13;4.60;;;;;9.20;98966.00;;;;5051290;28;20045;-63
2023/05/04 02:26:17;;;;;;;5.93;4.20;;;;;9.30;98969.00;;;;5052836;28;20040;-64
2023/05/04 02:28:43;;;;;;;7.55;4.30;;;;;9.30;98961.00;;;;5051079;28;20051;-64
2023/05/04 02:31:10;;;;;;;4.43;4.03;;;;;9.40;98958.00;;;;5034909;28;20048;-64
2023/05/04 02:33:37;;;;;;;8.05;4.40;;;;;9.50;98955.00;;;;5051393;28;20392;-64
2023/05/04 02:36:03;;;;;;;8.27;4.60;;;;;9.50;98950.00;;;;5052275;28;20052;-63
2023/05/04 02:38:31;;;;;;;6.25;4.43;;;;;9.40;98954.00;;;;5050895;28;20077;-64
2023/05/04 02:40:58;;;;;;;6.30;4.53;;;;;9.40;98954.00;;;;5053001;28;20051;-65
2023/05/04 02:43:25;;;;;;;5.50;4.10;;;;;9.40;98959.00;;;;5053077;28;20041;-65
2023/05/04 02:45:51;;;;;;;4.97;4.05;;;;;9.40;98951.00;;;;5052704;28;20049;-64
2023/05/04 02:48:19;;;;;;;7.07;4.28;;;;;9.30;98957.00;;;;5051185;28;20060;-63
2023/05/04 02:50:45;;;;;;;4.95;4.03;;;;;9.40;98958.00;;;;5058520;28;20037;-63
2023/05/04 02:53:12;;;;;;;7.72;4.18;;;;;9.40;98955.00;;;;5055586;28;20049;-63
2023/05/04 02:55:38;;;;;;;7.03;4.88;;;;;9.30;98953.00;;;;5067483;28;20052;-63
2023/05/04 02:58:06;;;;;;;7.78;4.90;;;;;9.20;98945.00;;;;5051189;28;20057;-64
2023/05/04 03:00:32;;;;;;;5.35;4.50;;;;;9.30;98943.00;;;;5051581;28;20053;-66
2023/05/04 03:02:59;;;;;;;4.57;4.13;;;;;9.30;98942.00;;;;5051085;28;20048;-64
2023/05/04 03:05:26;;;;;;;6.85;4.30;;;;;9.40;98945.00;;;;5050987;28;20705;-64
2023/05/04 03:07:52;;;;;;;7.68;4.72;;;;;9.40;98943.00;;;;5052187;28;20509;-66
2023/05/04 03:10:19;;;;;;;9.93;4.85;;;;;9.40;98946.00;;;;5051882;28;20059;-64
2023/05/04 03:12:45;;;;;;;7.15;5.00;;;;;9.40;98936.00;;;;5052578;28;20041;-62
2023/05/04 03:15:12;;;;;;;8.15;4.97;;;;;9.40;98933.00;;;;5052105;28;20049;-62
2023/05/04 03:17:39;;;;;;;8.48;4.82;;;;;9.40;98939.00;;;;5050841;28;20075;-64
2023/05/04 03:20:06;;;;;;;10.52;5.38;;;;;9.30;98934.00;;;;5051855;28;20583;-64
2023/05/04 03:22:33;;;;;;;8.68;5.15;;;;;9.20;98923.00;;;;5051874;28;20037;-64
2023/05/04 03:25:00;;;;;;;7.53;4.72;;;;;9.20;98935.00;;;;5050927;28;20064;-64
2023/05/04 03:27:28;;;;;;;6.07;4.30;;;;;9.20;98926.00;;;;5050575;28;20513;-64
2023/05/04 03:29:55;;;;;;;7.97;4.25;;;;;9.10;98933.00;;;;5050584;28;20051;-66
2023/05/04 03:32:23;;;;;;;7.53;4.53;;;;;9.10;98931.00;;;;5050644;28;20178;-66
2023/05/04 03:34:50;;;;;;;6.80;4.45;;;;;9.00;98927.00;;;;5051103;28;20135;-66
2023/05/04 03:37:18;;;;;;;6.57;4.78;;;;;8.90;98924.00;;;;5051356;28;20049;-66
2023/05/04 03:39:45;;;;;;;6.57;4.93;;;;;9.00;98916.00;;;;5050644;28;20123;-63
2023/05/04 03:42:11;;;;;;;12.15;4.88;;;;;9.00;98916.00;;;;5050941;28;20049;-63
2023/05/04 03:44:39;;;;;;;7.72;4.65;;;;;9.00;98916.00;;;;5052443;28;20041;-63
2023/05/04 03:47:06;;;;;;;9.18;5.28;;;;;9.00;98922.00;;;;5051411;28;20049;-63
2023/05/04 03:49:34;;;;;;;8.30;4.68;;;;;9.10;98934.00;;;;5052082;28;20080;-63
2023/05/04 03:52:00;;;;;;;6.45;4.35;;;;;9.20;98929.00;;;;5056115;28;20037;-62
2023/05/04 03:54:27;;;;;;;4.78;4.13;;;;;9.30;98933.00;;;;5055559;28;20049;-63
2023/05/04 03:56:54;;;;;;;5.40;4.45;;;;;9.40;98925.00;;;;5056424;28;20115;-63
2023/05/04 03:59:21;;;;;;;6.88;5.32;;;;;9.40;98931.00;;;;5054831;28;20048;-62
2023/05/04 04:01:48;;;;;;;7.57;5.00;;;;;9.50;98930.00;;;;5054982;28;20071;-63
2023/05/04 04:04:15;;;;;;;6.75;5.13;;;;;9.50;98927.00;;;;5054955;28;20411;-63
2023/05/04 04:06:42;;;;;;;7.25;4.65;;;;;9.40;98936.00;;;;5054699;28;20048;-63
2023/05/04 04:09:09;;;;;;;5.85;4.53;;;;;9.40;98934.00;;;;5054465;28;20391;-63
2023/05/04 04:11:35;;;;;;;7.10;4.35;;;;;9.50;98932.00;;;;5054435;28;20049;-64
2023/05/04 04:14:02;;;;;;;6.20;4.72;;;;;9.50;98927.00;;;;5054225;28;20045;-64
2023/05/04 04:16:28;;;;;;;5.63;4.88;;;;;9.40;98931.00;;;;5056322;28;20055;-63
2023/05/04 04:18:57;;;;;;;7.80;4.65;;;;;9.30;98933.00;;;;5055644;28;20056;-63
2023/05/04 04:21:23;;;;;;;5.57;4.20;;;;;9.20;98934.00;;;;5055698;28;20544;-63
2023/05/04 04:23:50;;;;;;;9.55;4.75;;;;;9.00;98931.00;;;;5055897;28;20044;-63
2023/05/04 04:26:16;;;;;;;7.38;4.65;;;;;9.00;98931.00;;;;5054316;28;20486;-63
2023/05/04 04:28:45;;;;;;;9.38;5.47;;;;;8.90;98938.00;;;;5053984;28;20049;-63
2023/05/04 04:31:11;;;;;;;8.00;5.30;;;;;8.80;98934.00;;;;5054401;28;20056;-63
2023/05/04 04:33:38;;;;;;;8.32;5.93;;;;;8.80;98933.00;;;;5055216;28;20041;-64
2023/05/04 04:36:04;;;;;;;11.25;5.70;;;;;8.80;98940.00;;;;5054180;28;20085;-64
2023/05/04 04:38:31;;;;;;;9.07;5.47;;;;;8.80;98926.00;;;;5055217;28;20044;-63
2023/05/04 04:40:57;;;;;;;7.88;5.80;;;;;8.70;98933.00;;;;5053724;28;20098;-64
2023/05/04 04:43:24;;;;;;;7.82;5.00;;;;;8.70;98936.00;;;;5055059;28;20044;-64
2023/05/04 04:45:52;;;;;;;5.90;5.10;;;;;8.80;98932.00;;;;5037447;28;20060;-64
2023/05/04 04:48:20;;;;;;;10.27;5.07;;;;;8.80;98926.00;;;;5054204;28;20098;-65
2023/05/04 04:50:47;;;;;;;11.95;5.90;;;;;8.80;98939.00;;;;5055783;28;20044;-67
2023/05/04 04:53:14;;;;;;;7.60;5.57;;;;;8.90;98938.00;;;;5055722;28;20036;-66
2023/05/04 04:55:40;;;;;;;9.77;5.57;;;;;8.90;98937.00;;;;5054540;28;20067;-66
2023/05/04 04:58:08;;;;;;;6.20;4.75;;;;;9.00;98937.00;;;;5054211;28;20041;-66
2023/05/04 05:00:35;;;;;;;6.53;5.03;;;;;8.90;98932.00;;;;5055070;28;20048;-65
2023/05/04 05:03:03;;;;;;;9.07;5.05;;;;;8.90;98939.00;;;;5054211;28;20385;-66
2023/05/04 05:05:33;;;;;;;6.70;4.18;;;;;9.00;98943.00;;;;5053311;28;20072;-66
2023/05/04 05:07:59;;;;;;;11.05;5.65;;;;;9.20;98942.00;;;;5053735;28;20041;-66
2023/05/04 05:10:26;;;;;;;7.53;4.70;;;;;9.30;98933.00;;;;5054191;28;20045;-66
2023/05/04 05:12:52;;;;;;;7.13;5.07;;;;;9.50;98937.00;;;;5053175;28;20056;-66
2023/05/04 05:15:19;;;;;;;8.20;5.97;;;;;9.60;98938.00;;;;5054508;28;20048;-64
2023/05/04 05:17:46;;;;;;;6.65;4.97;;;;;9.60;98941.00;;;;5053307;28;20049;-64
2023/05/04 05:20:14;;;;;;;7.90;5.70;;;;;9.70;98942.00;;;;5053156;28;20037;-64
2023/05/04 05:22:41;;;;;;;7.03;4.75;;;;;9.80;98945.00;;;;5054062;28;20084;-64
2023/05/04 05:25:08;;;;;;;5.35;4.57;;;;;9.80;98942.00;;;;5053188;28;20053;-64
2023/05/04 05:27:35;;;;;;;5.95;4.60;;;;;9.80;98939.00;;;;5053172;28;20391;-65
2023/05/04 05:30:04;;;;;;;8.80;5.88;;;;;10.00;98939.00;;;;5054242;28;20048;-65
2023/05/04 05:32:31;;;;;;;12.80;5.18;;;;;10.00;98943.00;;;;5054150;28;20612;-65
2023/05/04 05:34:58;;;;;;;6.80;4.82;;;;;10.10;98947.00;;;;5052871;28;20073;-65
2023/05/04 05:37:24;;;;;;;7.47;4.47;;;;;10.30;98951.00;;;;5054204;28;20040;-63
2023/05/04 05:39:51;;;;;;;9.95;4.78;;;;;10.40;98947.00;;;;5054080;28;20064;-64
2023/05/04 05:42:18;;;;;;;9.10;5.72;;;;;10.50;98949.00;;;;5053852;28;20045;-64
2023/05/04 05:44:44;;;;;;;8.88;4.90;;;;;10.70;98948.00;;;;5053826;28;20049;-64
2023/05/04 05:47:11;;;;;;;6.65;5.20;;;;;10.70;98948.00;;;;5053699;28;20041;-65
2023/05/04 05:49:37;;;;;;;7.25;5.15;;;;;10.80;98955.00;;;;5051756;28;20064;-65
2023/05/04 05:52:04;;;;;;;10.18;5.28;;;;;11.00;98941.00;;;;5053382;28;20041;-64
2023/05/04 05:54:31;;;;;;;6.00;4.93;;;;;11.10;98947.00;;;;5053406;28;20094;-64
2023/05/04 05:56:58;;;;;;;9.52;5.10;;;;;11.20;98941.00;;;;5052225;28;20096;-64
2023/05/04 05:59:24;;;;;;;8.95;5.07;;;;;11.20;98942.00;;;;5053287;28;20090;-64
2023/05/04 06:01:51;;;;;;;7.95;5.50;;;;;11.20;98931.00;;;;5052250;28;20041;-64
2023/05/04 06:04:17;;;;;;;8.70;5.32;;;;;11.20;98940.00;;;;5053101;28;20045;-64
2023/05/04 06:06:44;;;;;;;11.23;5.30;;;;;11.40;98945.00;;;;5053540;28;20397;-64
2023/05/04 06:09:12;;;;;;;10.05;5.22;;;;;11.60;98953.00;;;;5053222;28;20673;-64
2023/05/04 06:11:38;;;;;;;7.72;4.82;;;;;11.80;98951.00;;;;5053339;28;20051;-63
2023/05/04 06:14:05;;;;;;;8.10;5.03;;;;;11.90;98951.00;;;;5052525;28;20052;-64
2023/05/04 06:16:31;;;;;;;11.55;5.93;;;;;12.00;98949.00;;;;5053409;28;20049;-64
2023/05/04 06:18:58;;;;;;;9.90;5.45;;;;;12.10;98942.00;;;;5056769;28;20045;-65
2023/05/04 06:21:25;;;;;;;6.13;5.07;;;;;12.20;98944.00;;;;5055968;28;20119;-64
2023/05/04 06:23:52;;;;;;;7.63;5.50;;;;;12.30;98947.00;;;;5057668;28;20044;-64
2023/05/04 06:26:19;;;;;;;9.02;5.47;;;;;12.30;98944.00;;;;5055208;28;20401;-64
2023/05/04 06:28:45;;;;;;;9.80;5.60;;;;;12.40;98936.00;;;;5051678;28;20041;-64
2023/05/04 06:31:13;;;;;;;10.70;5.68;;;;;12.60;98938.00;;;;5053362;28;20045;-65
2023/05/04 06:33:40;;;;;;;10.48;5.40;;;;;12.70;98941.00;;;;5052841;28;20041;-64
2023/05/04 06:36:07;;;;;;;7.45;4.78;;;;;12.90;98937.00;;;;5053054;28;20040;-65
2023/05/04 06:38:33;;;;;;;7.82;5.25;;;;;12.90;98935.00;;;;5053190;28;20045;-65
2023/05/04 06:41:04;;;;;;;6.95;4.97;;;;;13.00;98932.00;;;;5053138;28;20052;-64
2023/05/04 06:43:31;;;;;;;8.20;4.35;;;;;13.00;98925.00;;;;5053137;28;20049;-64
2023/05/04 06:46:02;;;;;;;6.55;4.47;;;;;13.00;98936.00;;;;5054289;28;20072;-65
2023/05/04 06:48:29;;;;;;;7.60;4.97;;;;;13.10;98937.00;;;;5053316;28;20493;-64
2023/05/04 06:50:56;;;;;;;8.68;5.10;;;;;13.20;98927.00;;;;5053041;28;20508;-64
2023/05/04 06:53:23;;;;;;;5.32;4.38;;;;;13.40;98937.00;;;;5058416;28;20049;-64
2023/05/04 06:55:50;;;;;;;8.93;5.00;;;;;13.50;98933.00;;;;5067365;28;20049;-64
2023/05/04 06:58:18;;;;;;;7.63;5.20;;;;;13.60;98936.00;;;;5066640;28;20059;-64
2023/05/04 07:00:45;;;;;;;5.32;4.63;;;;;13.70;98934.00;;;;5054655;28;20037;-63
2023/05/04 07:03:12;;;;;;;9.82;5.78;;;;;13.80;98926.00;;;;5053757;28;20045;-64
2023/05/04 07:05:39;;;;;;;8.43;4.72;;;;;14.00;98938.00;;;;5053315;28;20051;-64
2023/05/04 07:08:05;;;;;;;6.00;4.55;;;;;14.20;98936.00;;;;5052906;28;20055;-64
2023/05/04 07:10:32;;;;;;;7.72;4.70;;;;;14.30;98927.00;;;;5053255;28;20041;-65
2023/05/04 07:12:58;;;;;;;7.95;4.30;;;;;14.50;98932.00;;;;5053631;28;20037;-64
2023/05/04 07:15:25;;;;;;;6.55;4.43;;;;;14.60;98925.00;;;;5053742;28;20041;-67
2023/05/04 07:17:52;;;;;;;5.90;4.40;;;;;14.80;98932.00;;;;5054087;28;20053;-65
2023/05/04 07:20:20;;;;;;;7.75;4.63;;;;;15.00;98940.00;;;;5052039;28;20041;-65
2023/05/04 07:22:56;;;;;;;6.32;5.43;;;;;15.20;98940.00;;;;5053645;28;20064;-64
2023/05/04 07:25:27;;;;;;;5.82;4.80;;;;;15.30;98939.00;;;;5053366;28;20494;-65
2023/05/04 07:27:53;;;;;;;5.45;4.40;;;;;15.50;98930.00;;;;5052806;28;20107;-64
2023/05/04 07:30:20;;;;;;;7.97;5.03;;;;;15.70;98925.00;;;;5052431;28;20127;-66
2023/05/04 07:32:47;;;;;;;6.50;4.68;;;;;15.80;98927.00;;;;5052497;28;20041;-67
2023/05/04 07:35:14;;;;;;;6.55;4.30;;;;;16.00;98920.00;;;;5051197;28;20068;-68
2023/05/04 07:37:40;;;;;;;5.95;4.63;;;;;16.10;98921.00;;;;5051940;28;20091;-66
2023/05/04 07:40:08;;;;;;;5.55;4.57;;;;;16.20;98916.00;;;;5051067;28;20452;-69
2023/05/04 07:42:35;;;;;;;5.97;4.95;;;;;16.40;98919.00;;;;5053164;28;20041;-67
2023/05/04 07:45:02;;;;;;;5.28;4.32;;;;;16.50;98915.00;;;;5051881;28;20111;-66
2023/05/04 07:47:28;;;;;;;7.82;5.45;;;;;16.60;98908.00;;;;5052801;28;20448;-67
2023/05/04 07:49:55;;;;;;;5.78;4.50;;;;;16.90;98901.00;;;;5052789;28;20041;-67
2023/05/04 07:52:21;;;;;;;6.80;5.57;;;;;17.00;98906.00;;;;5052843;28;20049;-67
2023/05/04 07:54:52;;;;;;;7.93;5.40;;;;;17.10;98903.00;;;;5051690;28;20098;-67
2023/05/04 07:57:19;;;;;;;8.13;5.13;;;;;17.20;98901.00;;;;5051337;28;20045;-67
2023/05/04 07:59:52;;;;;;;10.15;5.25;;;;;17.40;98893.00;;;;5052575;28;20049;-67
2023/05/04 08:02:19;;;;;;;6.97;4.45;;;;;17.50;98898.00;;;;5051949;28;20497;-67
2023/05/04 08:04:45;;;;;;;6.60;5.18;;;;;17.60;98896.00;;;;5053704;28;20107;-66
2023/05/04 08:07:15;;;;;;;5.38;4.82;;;;;17.90;98894.00;;;;5053258;28;20049;-66
2023/05/04 08:09:42;;;;;;;5.60;4.80;;;;;17.90;98889.00;;;;5053141;28;20500;-66
2023/05/04 08:12:08;;;;;;;5.45;4.65;;;;;18.00;98890.00;;;;5053709;28;20041;-65
2023/05/04 08:14:36;;;;;;;4.95;4.30;;;;;18.20;98887.00;;;;5052439;28;20485;-66
2023/05/04 08:17:03;;;;;;;6.07;4.50;;;;;18.40;98897.00;;;;5052517;28;20044;-65
2023/05/04 08:19:30;;;;;;;8.07;5.03;;;;;18.40;98879.00;;;;5051616;28;20045;-65
2023/05/04 08:21:56;;;;;;;7.28;4.50;;;;;18.50;98892.00;;;;5033934;28;20053;-64
2023/05/04 08:24:23;;;;;;;5.30;3.90;;;;;18.60;98881.00;;;;5051672;28;20041;-65
2023/05/04 08:26:49;;;;;;;4.47;4.05;;;;;18.70;98886.00;;;;5050834;28;20045;-65
2023/05/04 08:29:32;;;;;;;4.63;4.20;;;;;18.90;98877.00;;;;5050149;28;20059;-65
2023/05/04 08:31:58;;;;;;;5.60;3.78;;;;;19.00;98880.00;;;;5051649;28;20063;-65
2023/05/04 08:34:25;;;;;;;6.00;3.83;;;;;19.10;98875.00;;;;5051129;28;20049;-66
2023/05/04 08:36:52;;;;;;;5.07;3.97;;;;;19.20;98875.00;;;;5052877;28;20045;-65
2023/05/04 08:39:18;;;;;;;4.35;3.88;;;;;19.20;98876.00;;;;5055056;28;20041;-65
2023/05/04 08:41:45;;;;;;;4.22;3.58;;;;;19.30;98870.00;;;;5053871;28;20041;-65
2023/05/04 08:44:11;;;;;;;7.07;3.95;;;;;19.40;98866.00;;;;5054063;28;20064;-64
2023/05/04 08:46:39;;;;;;;3.50;3.20;;;;;19.50;98877.00;;;;5053812;28;20041;-66
2023/05/04 08:49:06;;;;;;;3.60;3.30;;;;;19.70;98874.00;;;;5053647;28;20505;-66
2023/05/04 08:51:34;;;;;;;7.55;3.47;;;;;19.70;98874.00;;;;5054138;28;20045;-65
2023/05/04 08:54:05;;;;;;;4.18;3.53;;;;;19.90;98862.00;;;;5055958;28;20514;-65
2023/05/04 08:56:32;;;;;;;3.53;3.22;;;;;20.00;98871.00;;;;5057340;28;20052;-65
2023/05/04 08:59:00;;;;;;;4.05;3.22;;;;;20.00;98865.00;;;;5054136;28;20501;-65
2023/05/04 09:01:29;;;;;;;3.58;3.05;;;;;20.10;98864.00;;;;5054859;28;20506;-65
2023/05/04 09:03:57;;;;;;;3.25;2.95;;;;;20.20;98863.00;;;;5054651;28;20044;-65
2023/05/04 09:06:24;;;;;;;3.63;3.33;;;;;20.30;98863.00;;;;5053732;28;20045;-66
2023/05/04 09:08:50;;;;;;;3.60;3.03;;;;;20.30;98854.00;;;;5053118;28;20079;-66
2023/05/04 09:11:17;;;;;;;3.60;3.03;;;;;20.40;98857.00;;;;5055423;28;20103;-65
2023/05/04 09:13:43;;;;;;;3.88;3.10;;;;;20.60;98855.00;;;;5054317;28;20523;-65
2023/05/04 09:16:10;;;;;;;3.15;2.65;;;;;20.80;98848.00;;;;5054726;28;20494;-65
2023/05/04 09:18:42;;;;;;;5.72;3.00;;;;;20.70;98854.00;;;;5055684;28;20041;-65
2023/05/04 09:21:10;;;;;;;2.88;2.55;;;;;20.80;98860.00;;;;5054357;28;20041;-64
2023/05/04 09:23:52;;;;;;;3.30;3.00;;;;;21.00;98853.00;;;;5054049;28;20045;-65
2023/05/04 09:26:29;;;;;;;3.65;2.38;;;;;21.10;98863.00;;;;5053964;28;20048;-64
2023/05/04 09:28:56;;;;;;;5.05;2.55;;;;;21.10;98856.00;;;;5052813;28;20059;-64
2023/05/04 09:31:23;;;;;;;3.33;2.40;;;;;21.20;98851.00;;;;5052743;28;20052;-64
2023/05/04 09:33:49;;;;;;;2.92;2.53;;;;;21.30;98858.00;;;;5053665;28;20052;-64
2023/05/04 09:36:20;;;;;;;3.65;2.30;;;;;21.30;98838.00;;;;5053740;28;20056;-64
2023/05/04 09:38:47;;;;;;;3.25;2.28;;;;;21.30;98849.00;;;;5052826;28;20076;-64
2023/05/04 09:41:14;;;;;;;2.70;2.50;;;;;21.50;98849.00;;;;5053822;28;20056;-64
2023/05/04 09:43:42;;;;;;;2.60;2.40;;;;;21.60;98843.00;;;;5054107;28;20436;-65
2023/05/04 09:46:17;;;;;;;3.40;2.60;;;;;21.80;98847.00;;;;5053728;28;20049;-64
2023/05/04 09:48:51;;;;;;;3.05;2.58;;;;;21.80;98842.00;;;;5051948;28;20041;-64
2023/05/04 09:51:21;;;;;;;3.30;2.47;;;;;21.90;98836.00;;;;5053891;28;20083;-64
2023/05/04 09:53:52;;;;;;;2.17;2.05;;;;;22.10;98835.00;;;;5053889;28;20045;-66
2023/05/04 09:56:40;;;;;;;1.92;1.80;;;;;22.20;98832.00;;;;5054706;28;20110;-66
2023/05/04 09:59:08;;;;;;;3.33;2.38;;;;;22.40;98827.00;;;;5052165;28;20049;-63
2023/05/04 10:01:35;;;;;;;2.90;2.53;;;;;22.40;98828.00;;;;5053443;28;20053;-63
2023/05/04 10:04:02;;;;;;;2.72;2.40;;;;;22.50;98826.00;;;;5052479;28;20393;-65
2023/05/04 10:06:30;;;;;;;3.55;2.28;;;;;22.40;98820.00;;;;5054251;28;20052;-64
2023/05/04 10:08:59;;;;;;;3.70;2.90;;;;;22.50;98819.00;;;;5054166;28;20049;-63
2023/05/04 10:11:27;;;;;;;5.28;2.85;;;;;22.60;98815.00;;;;5053881;28;20139;-63
2023/05/04 10:13:58;;;;;;;3.00;2.53;;;;;22.80;98812.00;;;;5054173;28;20044;-62
2023/05/04 10:16:43;;;;;;;3.30;2.17;;;;;22.70;98804.00;;;;5053481;28;20472;-63
2023/05/04 10:19:32;;;;;;;2.25;2.05;;;;;22.70;98801.00;;;;5053171;28;20048;-63
2023/05/04 10:22:30;;;;;;;3.10;2.08;;;;;22.70;98800.00;;;;5052338;28;20045;-63
2023/05/04 10:25:11;;;;;;;2.75;2.13;;;;;22.80;98791.00;;;;5053285;28;20049;-64
2023/05/04 10:28:07;;;;;;;3.75;2.20;;;;;22.80;98787.00;;;;5053171;28;20048;-64
2023/05/04 10:30:35;;;;;;;2.53;2.22;;;;;22.90;98780.00;;;;5051904;28;20044;-64
2023/05/04 10:33:01;;;;;;;2.50;2.22;;;;;23.00;98777.00;;;;5053137;28;20183;-64
2023/05/04 10:35:28;;;;;;;5.07;2.30;;;;;22.90;98774.00;;;;5053366;28;20045;-63
2023/05/04 10:37:55;;;;;;;3.05;2.28;;;;;23.00;98778.00;;;;5053068;28;20052;-64
2023/05/04 10:40:38;;;;;;;2.97;2.50;;;;;22.90;98768.00;;;;5051526;28;20136;-64
2023/05/04 10:43:10;;;;;;;4.80;2.10;;;;;22.90;98760.00;;;;5035319;28;20498;-63
2023/05/04 10:45:38;;;;;;;4.22;2.25;;;;;22.90;98763.00;;;;5052478;28;20466;-64
2023/05/04 10:48:08;;;;;;;4.18;2.15;;;;;22.80;98761.00;;;;5052493;28;20047;-64
2023/05/04 10:50:49;;;;;;;5.53;3.03;;;;;22.90;98757.00;;;;5052229;28;20052;-64
2023/05/04 10:53:17;;;;;;;3.45;2.50;;;;;22.90;98757.00;;;;5052371;28;20048;-64
2023/05/04 10:55:45;;;;;;;2.55;2.35;;;;;23.00;98759.00;;;;5054300;28;20124;-63
2023/05/04 10:58:15;;;;;;;5.10;2.38;;;;;22.90;98748.00;;;;5072440;28;20053;-63
2023/05/04 11:00:46;;;;;;;4.97;3.03;;;;;23.10;98750.00;;;;5072646;28;20048;-63
2023/05/04 11:03:13;;;;;;;2.65;2.45;;;;;23.00;98739.00;;;;5053590;28;20060;-64
2023/05/04 11:05:42;;;;;;;3.30;2.40;;;;;23.00;98740.00;;;;5052652;28;20554;-64
2023/05/04 11:08:25;;;;;;;3.95;2.50;;;;;23.00;98736.00;;;;5051550;28;20091;-64
2023/05/04 11:11:06;;;;;;;3.33;3.03;;;;;23.10;98732.00;;;;5051260;28;20525;-63
2023/05/04 11:13:34;;;;;;;3.35;3.08;;;;;23.10;98737.00;;;;5051380;28;20075;-63
2023/05/04 11:16:00;;;;;;;4.35;2.78;;;;;23.20;98733.00;;;;5052652;28;20048;-63
2023/05/04 11:18:29;;;;;;;2.95;2.38;;;;;23.30;98740.00;;;;5034766;28;20045;-64
2023/05/04 11:20:56;;;;;;;3.65;2.70;;;;;23.30;98732.00;;;;5052220;28;20036;-63
2023/05/04 11:23:23;;;;;;;3.97;2.83;;;;;23.30;98727.00;;;;5051859;28;20041;-63
2023/05/04 11:25:50;;;;;;;2.28;2.08;;;;;23.40;98729.00;;;;5052297;28;20048;-64
2023/05/04 11:28:16;;;;;;;3.22;2.50;;;;;23.50;98733.00;;;;5052269;28;20056;-63
2023/05/04 11:30:45;;;;;;;3.70;2.50;;;;;23.50;98725.00;;;;5051764;28;20410;-62
2023/05/04 11:33:14;;;;;;;3.03;2.67;;;;;23.50;98717.00;;;;5051836;28;20041;-63
2023/05/04 11:35:42;;;;;;;3.28;2.70;;;;;23.40;98720.00;;;;5051642;28;20037;-63
2023/05/04 11:38:09;;;;;;;3.35;2.72;;;;;23.50;98710.00;;;;5052100;28;20041;-64
2023/05/04 11:40:39;;;;;;;4.55;2.80;;;;;23.70;98715.00;;;;5051784;28;20037;-64
2023/05/04 11:43:09;;;;;;;3.28;2.95;;;;;23.70;98716.00;;;;5051793;28;20044;-64
2023/05/04 11:45:38;;;;;;;2.78;2.33;;;;;23.70;98709.00;;;;5051731;28;20045;-63
2023/05/04 11:48:07;;;;;;;4.88;2.95;;;;;23.70;98705.00;;;;5052004;28;20383;-64
2023/05/04 11:50:34;;;;;;;2.80;2.42;;;;;23.80;98702.00;;;;5051450;28;20044;-64
2023/05/04 11:53:11;;;;;;;2.92;2.40;;;;;23.80;98706.00;;;;5051669;28;20040;-64
2023/05/04 11:55:37;;;;;;;3.85;2.75;;;;;23.80;98699.00;;;;5050542;28;20052;-64
2023/05/04 11:58:06;;;;;;;5.43;4.00;;;;;24.00;98699.00;;;;5033882;28;20506;-64
2023/05/04 12:00:36;;;;;;;12.68;2.35;;;;;24.10;98709.00;;;;5051338;28;20489;-64
2023/05/04 12:03:04;;;;;;;2.33;2.10;;;;;24.30;98700.00;;;;5051802;28;20067;-64
2023/05/04 12:05:33;;;;;;;3.85;2.13;;;;;24.50;98696.00;;;;5052388;28;20041;-65
2023/05/04 12:08:02;;;;;;;2.90;2.35;;;;;24.50;98695.00;;;;5051887;28;20041;-64
2023/05/04 12:10:32;;;;;;;3.35;2.10;;;;;24.40;98686.00;;;;5052834;28;20041;-64
2023/05/04 12:12:58;;;;;;;4.40;2.20;;;;;24.30;98693.00;;;;5056275;28;20029;-63
2023/05/04 12:15:38;;;;;;;2.85;2.28;;;;;24.50;98688.00;;;;5058283;28;20665;-64
2023/05/04 12:18:04;;;;;;;3.83;1.92;;;;;24.50;98683.00;;;;5069133;28;20053;-65
2023/05/04 12:20:32;;;;;;;2.72;2.20;;;;;24.50;98674.00;;;;5065826;28;20125;-65
2023/05/04 12:23:04;;;;;;;2.80;2.22;;;;;24.80;98676.00;;;;5065024;28;20045;-67
2023/05/04 12:25:31;;;;;;;8.88;2.35;;;;;25.00;98680.00;;;;5064105;28;20433;-67